Time;durP1;ratioP1;P1;durP2;ratioP2;P2;SDS_P1;SDS_P2;PMS_P1;PMS_P2;Temp;Humidity;BMP_temperature;BMP_pressure;BME280_temperature;BME280_humidity;BME280_pressure;Samples;Min_cycle;Max_cycle;Signal;HPM_P1;HPM_P2
2023/06/01 00:01:23;;;;;;;19.33;7.72;;;;;;;;;;4987009;28;20503;-78
2023/06/01 00:03:50;;;;;;;13.13;6.78;;;;;;;;;;4982988;28;20053;-78
2023/06/01 00:06:16;;;;;;;12.07;6.32;;;;;;;;;;4981106;28;20027;-78
2023/06/01 00:08:41;;;;;;;18.80;9.10;;;;;;;;;;4984435;28;20345;-78
2023/06/01 00:11:06;;;;;;;13.20;8.65;;;;;;;;;;4994329;28;20365;-79
2023/06/01 00:13:32;;;;;;;11.68;7.53;;;;;;;;;;4980971;28;20202;-78
2023/06/01 00:15:57;;;;;;;14.95;9.55;;;;;;;;;;4979707;28;20406;-78
2023/06/01 00:18:22;;;;;;;21.85;8.38;;;;;;;;;;4978314;28;20050;-77
2023/06/01 00:20:48;;;;;;;12.73;7.20;;;;;;;;;;4978257;28;20385;-78
2023/06/01 00:23:16;;;;;;;13.90;7.18;;;;;;;;;;4980057;28;20034;-77
2023/06/01 00:25:41;;;;;;;11.40;7.38;;;;;;;;;;4981370;28;20066;-77
2023/06/01 00:28:07;;;;;;;12.18;6.80;;;;;;;;;;4975790;28;20137;-77
2023/06/01 00:30:32;;;;;;;11.90;7.32;;;;;;;;;;4981652;28;20047;-78
2023/06/01 00:32:57;;;;;;;18.10;6.88;;;;;;;;;;4989775;28;20027;-78
2023/06/01 00:35:23;;;;;;;13.68;7.25;;;;;;;;;;4986462;28;20509;-77
2023/06/01 00:37:48;;;;;;;10.65;7.78;;;;;;;;;;4985517;28;20043;-78
2023/06/01 00:40:13;;;;;;;10.82;7.47;;;;;;;;;;4983275;28;20385;-78
2023/06/01 00:42:38;;;;;;;10.73;6.85;;;;;;;;;;4980273;28;20042;-77
2023/06/01 00:45:05;;;;;;;14.30;8.15;;;;;;;;;;4980737;28;20026;-76
2023/06/01 00:47:38;;;;;;;15.07;7.25;;;;;;;;;;4980310;28;20485;-78
2023/06/01 00:50:03;;;;;;;10.80;7.25;;;;;;;;;;4987938;28;20043;-78
2023/06/01 00:52:30;;;;;;;24.23;9.00;;;;;;;;;;4980970;28;20390;-78
2023/06/01 00:54:55;;;;;;;9.40;6.50;;;;;;;;;;4985941;28;20569;-78
2023/06/01 00:57:26;;;;;;;9.52;6.82;;;;;;;;;;4995611;28;20165;-77
2023/06/01 00:59:51;;;;;;;10.45;7.05;;;;;;;;;;4996602;28;20396;-79
2023/06/01 01:02:18;;;;;;;11.55;7.28;;;;;;;;;;4996326;28;20027;-78
2023/06/01 01:04:44;;;;;;;11.93;7.00;;;;;;;;;;4995698;28;20128;-78
2023/06/01 01:07:21;;;;;;;13.93;8.05;;;;;;;;;;4995819;28;20370;-78
2023/06/01 01:10:01;;;;;;;10.70;7.20;;;;;;;;;;4995002;28;20358;-78
2023/06/01 01:12:47;;;;;;;11.50;7.13;;;;;;;;;;4995953;28;20035;-77
2023/06/01 01:15:21;;;;;;;8.55;6.40;;;;;;;;;;4996283;28;20022;-78
2023/06/01 01:17:51;;;;;;;;;;;;;;;;;;4996338;28;20569;-77
2023/06/01 01:20:26;;;;;;;15.02;7.63;;;;;;;;;;4995381;28;19969;-78
2023/06/01 01:22:56;;;;;;;8.80;6.47;;;;;;;;;;4993198;28;20153;-78
2023/06/01 01:25:36;;;;;;;10.93;6.32;;;;;;;;;;4995817;28;20034;-78
2023/06/01 01:28:29;;;;;;;11.35;8.07;;;;;;;;;;4993997;28;20034;-78
2023/06/01 01:30:58;;;;;;;10.32;7.75;;;;;;;;;;4995053;28;20030;-78
2023/06/01 01:33:25;;;;;;;12.65;8.20;;;;;;;;;;4995547;28;20181;-78
2023/06/01 01:35:51;;;;;;;10.70;7.65;;;;;;;;;;5011236;28;20027;-79
2023/06/01 01:38:16;;;;;;;16.58;7.80;;;;;;;;;;4987002;28;20041;-76
2023/06/01 01:40:42;;;;;;;9.10;7.15;;;;;;;;;;4991738;28;20706;-76
2023/06/01 01:43:07;;;;;;;20.77;8.88;;;;;;;;;;4993996;28;20117;-76
2023/06/01 01:45:33;;;;;;;13.38;7.63;;;;;;;;;;4989377;28;20049;-76
2023/06/01 01:48:08;;;;;;;11.68;7.65;;;;;;;;;;4993866;28;20041;-77
2023/06/01 01:50:51;;;;;;;9.88;7.60;;;;;;;;;;4993878;28;20273;-77
2023/06/01 01:53:17;;;;;;;14.10;8.48;;;;;;;;;;4986364;28;20084;-77
2023/06/01 01:55:45;;;;;;;14.27;8.00;;;;;;;;;;4993616;28;20049;-77
2023/06/01 01:58:10;;;;;;;10.00;6.88;;;;;;;;;;4993133;28;20027;-77
2023/06/01 02:00:37;;;;;;;12.75;8.13;;;;;;;;;;4992205;28;20109;-77
2023/06/01 02:03:02;;;;;;;11.48;7.82;;;;;;;;;;4993907;28;20025;-77
2023/06/01 02:05:27;;;;;;;13.52;7.50;;;;;;;;;;4992757;28;20038;-77
2023/06/01 02:07:53;;;;;;;14.35;8.25;;;;;;;;;;4993346;28;20026;-77
2023/06/01 02:10:19;;;;;;;15.48;8.18;;;;;;;;;;4993601;28;20213;-77
2023/06/01 02:12:45;;;;;;;16.25;9.02;;;;;;;;;;4993596;28;20405;-77
2023/06/01 02:15:10;;;;;;;14.95;8.85;;;;;;;;;;4993228;28;20092;-76
2023/06/01 02:17:37;;;;;;;16.35;9.73;;;;;;;;;;4992516;28;20544;-78
2023/06/01 02:20:03;;;;;;;12.85;9.90;;;;;;;;;;4992927;28;20134;-77
2023/06/01 02:22:28;;;;;;;17.02;10.00;;;;;;;;;;4993255;28;20564;-77
2023/06/01 02:24:53;;;;;;;23.75;11.02;;;;;;;;;;4991654;28;20105;-77
2023/06/01 02:27:18;;;;;;;23.55;10.52;;;;;;;;;;4992662;28;20110;-76
2023/06/01 02:29:44;;;;;;;20.65;10.98;;;;;;;;;;4993550;28;20027;-77
2023/06/01 02:32:09;;;;;;;18.45;10.10;;;;;;;;;;4993112;28;20038;-77
2023/06/01 02:34:36;;;;;;;13.35;9.07;;;;;;;;;;4990133;28;20035;-77
2023/06/01 02:37:01;;;;;;;14.98;9.63;;;;;;;;;;4990789;28;20034;-77
2023/06/01 02:39:26;;;;;;;16.20;8.82;;;;;;;;;;4992777;28;20041;-77
2023/06/01 02:41:52;;;;;;;14.10;8.38;;;;;;;;;;4993338;28;20030;-78
2023/06/01 02:44:17;;;;;;;16.35;9.05;;;;;;;;;;4992866;28;20034;-77
2023/06/01 02:46:42;;;;;;;17.95;8.95;;;;;;;;;;4987670;28;20053;-77
2023/06/01 02:49:08;;;;;;;13.68;8.80;;;;;;;;;;4992139;28;20509;-77
2023/06/01 02:51:33;;;;;;;16.42;9.00;;;;;;;;;;4989959;28;20041;-77
2023/06/01 02:53:59;;;;;;;12.20;8.38;;;;;;;;;;4990642;28;20053;-77
2023/06/01 02:56:25;;;;;;;14.38;9.70;;;;;;;;;;4992818;28;20039;-77
2023/06/01 02:58:50;;;;;;;14.77;8.80;;;;;;;;;;4992193;28;20065;-77
2023/06/01 03:01:16;;;;;;;16.65;8.82;;;;;;;;;;4992506;28;20507;-76
2023/06/01 03:03:41;;;;;;;13.30;8.52;;;;;;;;;;4991691;28;20031;-77
2023/06/01 03:06:08;;;;;;;14.27;8.27;;;;;;;;;;4992343;28;20437;-76
2023/06/01 03:08:34;;;;;;;14.15;8.13;;;;;;;;;;4991523;28;20066;-77
2023/06/01 03:11:00;;;;;;;12.18;8.63;;;;;;;;;;4992143;28;20502;-77
2023/06/01 03:13:25;;;;;;;14.60;8.80;;;;;;;;;;4992228;28;20423;-77
2023/06/01 03:15:50;;;;;;;11.32;8.50;;;;;;;;;;4992000;28;20038;-77
2023/06/01 03:18:16;;;;;;;21.77;10.00;;;;;;;;;;4991447;28;20018;-77
2023/06/01 03:20:41;;;;;;;16.42;9.60;;;;;;;;;;4992474;28;20027;-77
2023/06/01 03:23:07;;;;;;;16.55;9.70;;;;;;;;;;4991903;28;20031;-77
2023/06/01 03:25:33;;;;;;;14.38;9.65;;;;;;;;;;4990987;28;20042;-77
2023/06/01 03:27:58;;;;;;;17.48;9.38;;;;;;;;;;4991439;28;20034;-77
2023/06/01 03:30:23;;;;;;;15.82;9.70;;;;;;;;;;4991723;28;20157;-77
2023/06/01 03:32:49;;;;;;;21.23;11.65;;;;;;;;;;4981817;28;20030;-77
2023/06/01 03:35:14;;;;;;;18.17;11.05;;;;;;;;;;4987846;28;20735;-77
2023/06/01 03:37:41;;;;;;;16.33;10.57;;;;;;;;;;4983148;28;20042;-77
2023/06/01 03:40:11;;;;;;;14.35;10.40;;;;;;;;;;4987115;28;20412;-77
2023/06/01 03:42:49;;;;;;;20.77;10.85;;;;;;;;;;4984741;28;20038;-77
2023/06/01 03:45:18;;;;;;;12.80;9.00;;;;;;;;;;4988167;28;20031;-77
2023/06/01 03:47:43;;;;;;;12.30;8.95;;;;;;;;;;4989995;28;20030;-77
2023/06/01 03:50:10;;;;;;;14.50;8.27;;;;;;;;;;4989401;28;20049;-77
2023/06/01 03:52:36;;;;;;;19.05;8.73;;;;;;;;;;4990701;28;20043;-77
2023/06/01 03:55:07;;;;;;;13.20;8.55;;;;;;;;;;4989657;28;20042;-77
2023/06/01 03:57:33;;;;;;;12.80;9.02;;;;;;;;;;4971743;28;20501;-77
2023/06/01 03:59:58;;;;;;;14.45;8.93;;;;;;;;;;4979101;28;20033;-77
2023/06/01 04:02:24;;;;;;;17.83;8.80;;;;;;;;;;4980975;28;20094;-77
2023/06/01 04:04:49;;;;;;;16.02;8.93;;;;;;;;;;4986539;28;20046;-77
2023/06/01 04:07:18;;;;;;;13.55;8.35;;;;;;;;;;4976747;28;20045;-77
2023/06/01 04:09:44;;;;;;;13.00;8.52;;;;;;;;;;4979736;28;20045;-77
2023/06/01 04:12:10;;;;;;;11.57;8.88;;;;;;;;;;4982545;28;20038;-76
2023/06/01 04:14:36;;;;;;;13.60;8.18;;;;;;;;;;4984948;28;20061;-77
2023/06/01 04:17:01;;;;;;;12.07;7.25;;;;;;;;;;4978299;28;20509;-77
2023/06/01 04:19:27;;;;;;;9.63;7.05;;;;;;;;;;4982522;28;20037;-77
2023/06/01 04:21:52;;;;;;;11.60;7.00;;;;;;;;;;4976918;28;20086;-77
2023/06/01 04:24:19;;;;;;;11.10;7.45;;;;;;;;;;4984910;28;20046;-77
2023/06/01 04:26:44;;;;;;;11.73;7.93;;;;;;;;;;4987319;28;20514;-77
2023/06/01 04:29:11;;;;;;;11.55;7.88;;;;;;;;;;4978727;28;20035;-77
2023/06/01 04:31:37;;;;;;;13.95;7.75;;;;;;;;;;4985211;28;20034;-77
2023/06/01 04:34:02;;;;;;;13.32;7.28;;;;;;;;;;4984970;28;20046;-77
2023/06/01 04:36:29;;;;;;;11.75;7.32;;;;;;;;;;4981845;28;20043;-77
2023/06/01 04:38:54;;;;;;;11.82;7.07;;;;;;;;;;4980638;28;20402;-77
2023/06/01 04:41:24;;;;;;;15.45;6.97;;;;;;;;;;4986675;28;20077;-77
2023/06/01 04:43:52;;;;;;;9.52;6.32;;;;;;;;;;4985107;28;20101;-77
2023/06/01 04:46:23;;;;;;;10.82;6.45;;;;;;;;;;4983419;28;20037;-78
2023/06/01 04:48:51;;;;;;;11.57;6.55;;;;;;;;;;4983893;28;20038;-77
2023/06/01 04:51:19;;;;;;;12.15;7.20;;;;;;;;;;4985753;28;20045;-77
2023/06/01 04:53:51;;;;;;;10.85;6.72;;;;;;;;;;4988152;28;20037;-77
2023/06/01 04:56:29;;;;;;;12.32;6.65;;;;;;;;;;4987265;28;20122;-77
2023/06/01 04:58:56;;;;;;;13.02;7.65;;;;;;;;;;4985906;28;20089;-77
2023/06/01 05:01:24;;;;;;;12.88;7.25;;;;;;;;;;4987405;28;20030;-77
2023/06/01 05:03:51;;;;;;;12.30;6.63;;;;;;;;;;4989391;28;20521;-77
2023/06/01 05:06:17;;;;;;;10.25;7.15;;;;;;;;;;4988104;28;20059;-77
2023/06/01 05:08:42;;;;;;;11.07;6.97;;;;;;;;;;4988392;28;20573;-78
2023/06/01 05:11:09;;;;;;;10.10;6.75;;;;;;;;;;4988315;28;20505;-77
2023/06/01 05:13:35;;;;;;;10.75;7.30;;;;;;;;;;4983471;28;20142;-77
2023/06/01 05:16:02;;;;;;;14.05;7.30;;;;;;;;;;4979411;28;20035;-77
2023/06/01 05:18:28;;;;;;;13.43;6.88;;;;;;;;;;4979323;28;20070;-77
2023/06/01 05:20:53;;;;;;;10.88;6.72;;;;;;;;;;4972667;28;20031;-77
2023/06/01 05:23:18;;;;;;;11.93;6.55;;;;;;;;;;4987448;28;20031;-77
2023/06/01 05:25:43;;;;;;;13.38;7.03;;;;;;;;;;4984439;28;20521;-77
2023/06/01 05:28:09;;;;;;;12.35;6.85;;;;;;;;;;4974017;28;20409;-77
2023/06/01 05:30:35;;;;;;;12.45;6.85;;;;;;;;;;4976653;28;20121;-77
2023/06/01 05:33:00;;;;;;;11.40;6.47;;;;;;;;;;4979288;28;20054;-77
2023/06/01 05:35:26;;;;;;;12.65;6.63;;;;;;;;;;4984335;28;20065;-77
2023/06/01 05:37:51;;;;;;;7.80;6.25;;;;;;;;;;4981404;28;20045;-77
2023/06/01 05:40:16;;;;;;;11.35;7.03;;;;;;;;;;4980616;28;20035;-77
2023/06/01 05:42:42;;;;;;;12.73;6.30;;;;;;;;;;4987249;28;20061;-77
2023/06/01 05:45:07;;;;;;;12.57;6.45;;;;;;;;;;4984585;28;20038;-77
2023/06/01 05:47:32;;;;;;;14.02;6.20;;;;;;;;;;4987015;28;20042;-77
2023/06/01 05:49:58;;;;;;;10.48;6.20;;;;;;;;;;4981771;28;20437;-77
2023/06/01 05:52:23;;;;;;;13.48;6.63;;;;;;;;;;4985276;28;20163;-77
2023/06/01 05:54:53;;;;;;;9.65;6.00;;;;;;;;;;4987246;28;20038;-77
2023/06/01 05:57:19;;;;;;;11.63;6.38;;;;;;;;;;4988184;28;20030;-78
2023/06/01 05:59:45;;;;;;;11.02;6.60;;;;;;;;;;4986819;28;20034;-78
2023/06/01 06:02:11;;;;;;;9.05;6.13;;;;;;;;;;4987599;28;20034;-78
2023/06/01 06:04:36;;;;;;;10.40;6.40;;;;;;;;;;4987190;28;20531;-78
2023/06/01 06:07:02;;;;;;;11.43;6.82;;;;;;;;;;4985134;28;20030;-78
2023/06/01 06:09:27;;;;;;;9.48;6.30;;;;;;;;;;4988015;28;20121;-77
2023/06/01 06:11:52;;;;;;;10.05;6.55;;;;;;;;;;4988052;28;20030;-78
2023/06/01 06:14:18;;;;;;;22.95;7.10;;;;;;;;;;4988165;28;20078;-77
2023/06/01 06:16:43;;;;;;;10.25;6.55;;;;;;;;;;4991469;28;20108;-77
2023/06/01 06:19:08;;;;;;;11.38;6.35;;;;;;;;;;4989274;28;20039;-78
2023/06/01 06:21:35;;;;;;;10.15;6.68;;;;;;;;;;4990545;28;20122;-77
2023/06/01 06:24:00;;;;;;;20.67;7.40;;;;;;;;;;4986315;28;20037;-78
2023/06/01 06:26:26;;;;;;;9.10;6.68;;;;;;;;;;4988093;28;20038;-77
2023/06/01 06:28:52;;;;;;;10.77;6.20;;;;;;;;;;4991462;28;20046;-78
2023/06/01 06:31:17;;;;;;;13.55;6.68;;;;;;;;;;4992572;28;20483;-78
2023/06/01 06:33:42;;;;;;;19.92;6.88;;;;;;;;;;4987311;28;20042;-78
2023/06/01 06:36:08;;;;;;;14.52;8.30;;;;;;;;;;4980608;28;20065;-78
2023/06/01 06:38:33;;;;;;;14.02;6.22;;;;;;;;;;4982614;28;20031;-78
2023/06/01 06:40:58;;;;;;;11.18;6.80;;;;;;;;;;4975827;28;20034;-78
2023/06/01 06:43:24;;;;;;;18.13;6.72;;;;;;;;;;4989724;28;20058;-78
2023/06/01 06:45:49;;;;;;;13.20;7.05;;;;;;;;;;4994030;28;20101;-78
2023/06/01 06:48:15;;;;;;;10.18;6.63;;;;;;;;;;4975260;28;20034;-78
2023/06/01 06:50:44;;;;;;;11.00;6.85;;;;;;;;;;4993596;28;20022;-77
2023/06/01 06:53:09;;;;;;;13.77;7.30;;;;;;;;;;4984054;28;20405;-78
2023/06/01 06:55:34;;;;;;;8.52;6.53;;;;;;;;;;4986586;28;20125;-78
2023/06/01 06:58:00;;;;;;;16.95;7.13;;;;;;;;;;4982216;28;20034;-77
2023/06/01 07:00:26;;;;;;;12.43;6.72;;;;;;;;;;4984957;28;20049;-78
2023/06/01 07:02:52;;;;;;;13.40;6.93;;;;;;;;;;5008876;28;20061;-78
2023/06/01 07:05:18;;;;;;;12.48;6.75;;;;;;;;;;4987361;28;20073;-78
2023/06/01 07:07:43;;;;;;;9.82;6.95;;;;;;;;;;4992000;28;20038;-78
2023/06/01 07:10:09;;;;;;;8.88;6.50;;;;;;;;;;4989519;28;20062;-77
2023/06/01 07:12:38;;;;;;;13.20;7.22;;;;;;;;;;4998275;28;20031;-78
2023/06/01 07:15:04;;;;;;;11.57;6.97;;;;;;;;;;4993771;28;20030;-78
2023/06/01 07:17:30;;;;;;;10.18;6.35;;;;;;;;;;4993225;28;20097;-78
2023/06/01 07:19:55;;;;;;;13.85;6.25;;;;;;;;;;4998989;28;20162;-77
2023/06/01 07:22:21;;;;;;;10.45;6.60;;;;;;;;;;4991691;28;20453;-78
2023/06/01 07:24:47;;;;;;;11.93;6.80;;;;;;;;;;4985860;28;20501;-79
2023/06/01 07:27:12;;;;;;;11.55;6.63;;;;;;;;;;4987877;28;20029;-78
2023/06/01 07:29:38;;;;;;;9.32;6.63;;;;;;;;;;4976206;28;20031;-78
2023/06/01 07:32:04;;;;;;;11.45;6.25;;;;;;;;;;4978049;28;20503;-78
2023/06/01 07:34:29;;;;;;;18.27;6.30;;;;;;;;;;4981721;28;20043;-77
2023/06/01 07:36:58;;;;;;;10.07;6.55;;;;;;;;;;4979485;28;20037;-78
2023/06/01 07:39:24;;;;;;;10.40;6.65;;;;;;;;;;4982643;28;20037;-78
2023/06/01 07:41:50;;;;;;;14.35;7.07;;;;;;;;;;4990098;28;20385;-79
2023/06/01 07:44:18;;;;;;;13.05;7.00;;;;;;;;;;4997218;28;20053;-80
2023/06/01 07:46:43;;;;;;;10.80;6.45;;;;;;;;;;5011955;28;20117;-79
2023/06/01 07:49:13;;;;;;;15.27;7.45;;;;;;;;;;5012290;28;20054;-80
2023/06/01 07:51:38;;;;;;;11.25;6.55;;;;;;;;;;4995692;28;20520;-80
2023/06/01 07:54:04;;;;;;;10.98;6.05;;;;;;;;;;5011910;28;20022;-80
2023/06/01 07:56:29;;;;;;;10.55;6.50;;;;;;;;;;4996838;28;20026;-80
2023/06/01 07:58:55;;;;;;;11.23;6.90;;;;;;;;;;5011445;28;20026;-81
2023/06/01 08:01:20;;;;;;;9.77;5.95;;;;;;;;;;4996381;28;20039;-79
2023/06/01 08:03:45;;;;;;;13.63;7.10;;;;;;;;;;4994793;28;20081;-79
2023/06/01 08:06:11;;;;;;;9.95;6.50;;;;;;;;;;4994032;28;20026;-77
2023/06/01 08:08:36;;;;;;;8.55;5.85;;;;;;;;;;4995044;28;20062;-78
2023/06/01 08:11:01;;;;;;;9.43;6.68;;;;;;;;;;4993753;28;20061;-78
2023/06/01 08:13:27;;;;;;;10.68;6.35;;;;;;;;;;4995277;28;20039;-81
2023/06/01 08:15:53;;;;;;;9.55;6.78;;;;;;;;;;4995451;28;20045;-79
2023/06/01 08:18:19;;;;;;;12.25;7.05;;;;;;;;;;4995770;28;20050;-80
2023/06/01 08:20:45;;;;;;;8.90;6.43;;;;;;;;;;4996332;28;20445;-79
2023/06/01 08:23:10;;;;;;;13.90;7.00;;;;;;;;;;4996091;28;20034;-80
2023/06/01 08:25:40;;;;;;;8.82;5.93;;;;;;;;;;4996812;28;20045;-81
2023/06/01 08:28:05;;;;;;;13.25;7.07;;;;;;;;;;4996503;28;20485;-82
2023/06/01 08:30:31;;;;;;;10.63;7.25;;;;;;;;;;4997331;28;20078;-80
2023/06/01 08:32:56;;;;;;;10.45;6.60;;;;;;;;;;4996832;28;20461;-79
2023/06/01 08:35:21;;;;;;;13.82;7.25;;;;;;;;;;4997373;28;20031;-80
2023/06/01 08:37:47;;;;;;;21.17;6.90;;;;;;;;;;4996559;28;20042;-81
2023/06/01 08:40:13;;;;;;;10.20;6.32;;;;;;;;;;4997013;28;20290;-81
2023/06/01 08:42:42;;;;;;;10.82;6.22;;;;;;;;;;5011510;28;20505;-81
2023/06/01 08:45:08;;;;;;;10.38;5.70;;;;;;;;;;4996383;28;20053;-80
2023/06/01 08:47:37;;;;;;;15.57;7.15;;;;;;;;;;4997513;28;20033;-80
2023/06/01 08:50:03;;;;;;;8.85;6.25;;;;;;;;;;4994736;28;20039;-80
2023/06/01 08:52:31;;;;;;;10.77;5.80;;;;;;;;;;4995355;28;20030;-81
2023/06/01 08:55:03;;;;;;;9.65;6.35;;;;;;;;;;4996098;28;20054;-81
2023/06/01 08:57:35;;;;;;;9.57;7.25;;;;;;;;;;5012120;28;20521;-83
2023/06/01 09:00:00;;;;;;;11.85;6.43;;;;;;;;;;4995952;28;20057;-80
2023/06/01 09:02:27;;;;;;;7.30;5.80;;;;;;;;;;5011645;28;20035;-80
2023/06/01 09:04:53;;;;;;;7.85;5.68;;;;;;;;;;4996835;28;20038;-81
2023/06/01 09:07:18;;;;;;;8.85;5.65;;;;;;;;;;4994516;28;20042;-81
2023/06/01 09:09:44;;;;;;;9.73;6.03;;;;;;;;;;4996159;28;20476;-80
2023/06/01 09:12:25;;;;;;;9.38;5.57;;;;;;;;;;4997208;28;20022;-80
2023/06/01 09:15:16;;;;;;;9.77;6.28;;;;;;;;;;4997985;28;20480;-81
2023/06/01 09:17:50;;;;;;;12.65;5.82;;;;;;;;;;5001692;28;20065;-81
2023/06/01 09:20:27;;;;;;;7.55;6.18;;;;;;;;;;5000585;28;20034;-81
2023/06/01 09:22:53;;;;;;;9.60;5.78;;;;;;;;;;5000835;28;20115;-81
2023/06/01 09:25:32;;;;;;;13.40;5.90;;;;;;;;;;5000542;28;20030;-81
2023/06/01 09:28:00;;;;;;;15.30;5.93;;;;;;;;;;5000609;28;20042;-81
2023/06/01 09:30:37;;;;;;;13.82;5.32;;;;;;;;;;5000517;28;20061;-81
2023/06/01 09:33:09;;;;;;;8.02;4.78;;;;;;;;;;5016222;28;20023;-81
2023/06/01 09:35:46;;;;;;;6.88;4.70;;;;;;;;;;5001304;28;20026;-80
2023/06/01 09:38:19;;;;;;;7.72;5.03;;;;;;;;;;5015945;28;20062;-80
2023/06/01 09:40:56;;;;;;;7.88;4.95;;;;;;;;;;5000668;28;20119;-79
2023/06/01 09:43:22;;;;;;;11.02;5.00;;;;;;;;;;5015850;28;20046;-80
2023/06/01 09:46:13;;;;;;;8.88;5.10;;;;;;;;;;4998929;28;20049;-79
2023/06/01 09:48:38;;;;;;;9.02;5.07;;;;;;;;;;5015114;28;20039;-81
2023/06/01 09:51:04;;;;;;;7.97;5.63;;;;;;;;;;4999646;28;20025;-80
2023/06/01 09:53:43;;;;;;;9.85;5.47;;;;;;;;;;5000941;28;20029;-81
2023/06/01 09:56:08;;;;;;;9.38;5.68;;;;;;;;;;5000413;28;20058;-80
2023/06/01 09:58:39;;;;;;;12.35;5.35;;;;;;;;;;4998849;28;20031;-81
2023/06/01 10:01:07;;;;;;;11.32;5.40;;;;;;;;;;4999859;28;20042;-81
2023/06/01 10:03:33;;;;;;;7.95;5.00;;;;;;;;;;4998021;28;20057;-79
2023/06/01 10:06:00;;;;;;;7.53;5.20;;;;;;;;;;4999258;28;20027;-82
2023/06/01 10:08:26;;;;;;;10.80;5.03;;;;;;;;;;4999529;28;20035;-81
2023/06/01 10:10:51;;;;;;;6.72;5.13;;;;;;;;;;5014630;28;20034;-81
2023/06/01 10:13:17;;;;;;;21.75;5.50;;;;;;;;;;5014080;28;20038;-81
2023/06/01 10:15:42;;;;;;;7.82;5.10;;;;;;;;;;4998979;28;20034;-82
2023/06/01 10:18:08;;;;;;;8.80;5.18;;;;;;;;;;5014993;28;20389;-81
2023/06/01 10:20:37;;;;;;;9.77;5.20;;;;;;;;;;4999822;28;20100;-82
2023/06/01 10:23:04;;;;;;;8.70;5.40;;;;;;;;;;4998138;28;20386;-80
2023/06/01 10:25:43;;;;;;;7.32;4.65;;;;;;;;;;4998687;28;20036;-81
2023/06/01 10:28:11;;;;;;;7.82;5.10;;;;;;;;;;4999051;28;20038;-81
2023/06/01 10:30:37;;;;;;;8.00;4.20;;;;;;;;;;4999766;28;20041;-79
2023/06/01 10:33:02;;;;;;;9.30;5.63;;;;;;;;;;4999690;28;20035;-80
2023/06/01 10:35:27;;;;;;;8.13;4.90;;;;;;;;;;5014750;28;20042;-80
2023/06/01 10:38:14;;;;;;;8.35;5.05;;;;;;;;;;4997645;28;20409;-80
2023/06/01 10:40:43;;;;;;;9.07;5.22;;;;;;;;;;4997536;28;20397;-81
2023/06/01 10:43:35;;;;;;;13.23;5.32;;;;;;;;;;4998709;28;20037;-80
2023/06/01 10:46:00;;;;;;;13.45;5.38;;;;;;;;;;4993247;28;20041;-80
2023/06/01 10:48:53;;;;;;;10.18;5.28;;;;;;;;;;4998455;28;20042;-80
2023/06/01 10:51:20;;;;;;;11.65;4.95;;;;;;;;;;5010459;28;20042;-80
2023/06/01 10:53:45;;;;;;;7.80;4.75;;;;;;;;;;4997104;28;20080;-79
2023/06/01 10:56:24;;;;;;;8.77;4.82;;;;;;;;;;4998085;28;20038;-80
2023/06/01 10:59:11;;;;;;;6.43;4.45;;;;;;;;;;4998022;28;20101;-80
2023/06/01 11:01:41;;;;;;;7.47;4.72;;;;;;;;;;4997683;28;20480;-81
2023/06/01 11:04:07;;;;;;;10.25;5.10;;;;;;;;;;4997330;28;20039;-80
2023/06/01 11:06:39;;;;;;;7.05;5.18;;;;;;;;;;4997775;28;20121;-80
2023/06/01 11:09:10;;;;;;;11.35;4.90;;;;;;;;;;5013296;28;20026;-80
2023/06/01 11:11:58;;;;;;;6.72;4.57;;;;;;;;;;4998718;28;20464;-80
2023/06/01 11:14:25;;;;;;;12.10;5.97;;;;;;;;;;4997527;28;20043;-80
2023/06/01 11:16:52;;;;;;;9.73;5.38;;;;;;;;;;4998387;28;20386;-80
2023/06/01 11:19:25;;;;;;;6.22;5.20;;;;;;;;;;5013217;28;20034;-80
2023/06/01 11:22:03;;;;;;;8.55;5.07;;;;;;;;;;4999120;28;20038;-79
2023/06/01 11:24:36;;;;;;;10.43;5.20;;;;;;;;;;5013364;28;20035;-78
2023/06/01 11:27:11;;;;;;;8.80;5.30;;;;;;;;;;4998095;28;20053;-80
2023/06/01 11:29:36;;;;;;;8.80;5.18;;;;;;;;;;4996913;28;20493;-80
2023/06/01 11:32:05;;;;;;;18.15;5.20;;;;;;;;;;4998020;28;20039;-81
2023/06/01 11:34:33;;;;;;;9.45;6.28;;;;;;;;;;5012421;28;20041;-80
2023/06/01 11:36:59;;;;;;;6.40;5.07;;;;;;;;;;4997373;28;20513;-79
2023/06/01 11:39:28;;;;;;;9.23;4.95;;;;;;;;;;4997401;28;20146;-80
2023/06/01 11:42:05;;;;;;;13.48;4.85;;;;;;;;;;5012829;28;20056;-80
2023/06/01 11:44:31;;;;;;;7.22;4.63;;;;;;;;;;4997254;28;20117;-81
2023/06/01 11:46:57;;;;;;;8.00;4.95;;;;;;;;;;4996715;28;20034;-80
2023/06/01 11:49:23;;;;;;;8.48;5.28;;;;;;;;;;4997254;28;20140;-80
2023/06/01 11:51:51;;;;;;;11.55;5.68;;;;;;;;;;4994699;28;20034;-79
2023/06/01 11:54:16;;;;;;;9.90;6.03;;;;;;;;;;5011986;28;20018;-79
2023/06/01 11:56:45;;;;;;;10.70;5.20;;;;;;;;;;4995258;28;20117;-79
2023/06/01 11:59:12;;;;;;;12.32;4.90;;;;;;;;;;4996576;28;20030;-80
2023/06/01 12:01:45;;;;;;;8.95;5.35;;;;;;;;;;4996532;28;20035;-80
2023/06/01 12:04:18;;;;;;;8.88;5.32;;;;;;;;;;4997432;28;20038;-80
2023/06/01 12:06:44;;;;;;;9.20;4.90;;;;;;;;;;4997686;28;20038;-80
2023/06/01 12:09:11;;;;;;;5.57;4.70;;;;;;;;;;5011999;28;20281;-81
2023/06/01 12:11:37;;;;;;;9.80;5.38;;;;;;;;;;4997902;28;20106;-81
2023/06/01 12:14:05;;;;;;;10.20;4.60;;;;;;;;;;4997755;28;20125;-81
2023/06/01 12:16:58;;;;;;;8.30;4.85;;;;;;;;;;4997239;28;20076;-81
2023/06/01 12:19:24;;;;;;;7.32;4.93;;;;;;;;;;5011975;28;20038;-80
2023/06/01 12:21:50;;;;;;;6.85;4.50;;;;;;;;;;4996951;28;20121;-81
2023/06/01 12:24:26;;;;;;;7.57;4.82;;;;;;;;;;4996991;28;20030;-79
2023/06/01 12:26:51;;;;;;;7.00;4.93;;;;;;;;;;4998118;28;20031;-81
2023/06/01 12:29:37;;;;;;;9.82;4.93;;;;;;;;;;5011650;28;20038;-79
2023/06/01 12:32:03;;;;;;;9.23;5.15;;;;;;;;;;4995611;28;20505;-81
2023/06/01 12:34:29;;;;;;;8.57;5.63;;;;;;;;;;5012447;28;20027;-80
2023/06/01 12:36:54;;;;;;;7.65;5.25;;;;;;;;;;4997203;28;20058;-81
2023/06/01 12:39:36;;;;;;;8.82;5.32;;;;;;;;;;4998051;28;20485;-79
2023/06/01 12:42:02;;;;;;;7.82;4.82;;;;;;;;;;4997011;28;20089;-80
2023/06/01 12:44:28;;;;;;;7.80;5.32;;;;;;;;;;4996512;28;20472;-80
2023/06/01 12:47:00;;;;;;;8.57;5.72;;;;;;;;;;4996530;28;20030;-80
2023/06/01 12:49:26;;;;;;;10.70;5.18;;;;;;;;;;4996061;28;20081;-80
2023/06/01 12:51:51;;;;;;;9.32;5.15;;;;;;;;;;5011843;28;20038;-79
2023/06/01 12:54:17;;;;;;;7.90;5.05;;;;;;;;;;4994695;28;20022;-79
2023/06/01 12:56:43;;;;;;;9.52;5.32;;;;;;;;;;5012028;28;20022;-81
2023/06/01 12:59:08;;;;;;;7.63;4.85;;;;;;;;;;4995996;28;20030;-79
2023/06/01 13:01:36;;;;;;;11.77;5.30;;;;;;;;;;4996500;28;20049;-79
2023/06/01 13:04:04;;;;;;;11.75;5.00;;;;;;;;;;4997423;28;20041;-80
2023/06/01 13:06:34;;;;;;;10.60;4.93;;;;;;;;;;5012633;28;20068;-83
2023/06/01 13:08:59;;;;;;;11.48;4.32;;;;;;;;;;4997998;28;20023;-80
2023/06/01 13:11:25;;;;;;;6.68;5.03;;;;;;;;;;5012726;28;20460;-81
2023/06/01 13:13:50;;;;;;;6.45;4.72;;;;;;;;;;4997742;28;20039;-81
2023/06/01 13:16:15;;;;;;;7.13;4.90;;;;;;;;;;5012275;28;20038;-80
2023/06/01 13:18:41;;;;;;;9.93;5.07;;;;;;;;;;4997145;28;20027;-81
2023/06/01 13:21:07;;;;;;;9.05;4.53;;;;;;;;;;4996778;28;20083;-81
2023/06/01 13:23:32;;;;;;;6.47;4.90;;;;;;;;;;4997870;28;20025;-80
2023/06/01 13:25:58;;;;;;;12.88;5.15;;;;;;;;;;5012370;28;20038;-81
2023/06/01 13:28:23;;;;;;;7.28;4.75;;;;;;;;;;4996759;28;20044;-80
2023/06/01 13:30:49;;;;;;;6.63;5.15;;;;;;;;;;5012583;28;20498;-81
2023/06/01 13:33:15;;;;;;;5.57;4.45;;;;;;;;;;5012493;28;20249;-81
2023/06/01 13:35:40;;;;;;;6.70;4.60;;;;;;;;;;4997741;28;20076;-81
2023/06/01 13:38:06;;;;;;;9.35;4.97;;;;;;;;;;5012902;28;20041;-82
2023/06/01 13:40:32;;;;;;;9.00;4.95;;;;;;;;;;5012053;28;20109;-81
2023/06/01 13:42:58;;;;;;;7.22;4.68;;;;;;;;;;4997095;28;20098;-78
2023/06/01 13:45:24;;;;;;;5.78;4.57;;;;;;;;;;4988260;28;20520;-78
2023/06/01 13:47:50;;;;;;;10.80;4.93;;;;;;;;;;4988440;28;20027;-78
2023/06/01 13:50:17;;;;;;;7.32;4.28;;;;;;;;;;4994596;28;20030;-78
2023/06/01 13:52:42;;;;;;;4.28;3.80;;;;;;;;;;4989984;28;20121;-78
2023/06/01 13:55:09;;;;;;;6.15;4.25;;;;;;;;;;5000604;28;20108;-78
2023/06/01 13:57:39;;;;;;;8.73;5.53;;;;;;;;;;4986396;28;20103;-78
2023/06/01 14:00:08;;;;;;;7.03;4.30;;;;;;;;;;4986365;28;20393;-80
2023/06/01 14:02:34;;;;;;;6.30;4.55;;;;;;;;;;4987517;28;20046;-80
2023/06/01 14:05:00;;;;;;;5.43;3.95;;;;;;;;;;4990641;28;20041;-79
2023/06/01 14:07:25;;;;;;;7.63;4.53;;;;;;;;;;4981224;28;20042;-79
2023/06/01 14:09:50;;;;;;;7.35;4.45;;;;;;;;;;4990332;28;20051;-79
2023/06/01 14:12:16;;;;;;;10.65;4.60;;;;;;;;;;4989206;28;20037;-78
2023/06/01 14:14:41;;;;;;;8.90;4.15;;;;;;;;;;4990958;28;20480;-79
2023/06/01 14:17:06;;;;;;;8.73;4.93;;;;;;;;;;4991894;28;20590;-78
2023/06/01 14:19:32;;;;;;;10.75;4.30;;;;;;;;;;4986102;28;20039;-79
2023/06/01 14:21:57;;;;;;;10.55;4.55;;;;;;;;;;4991427;28;20026;-78
2023/06/01 14:24:22;;;;;;;8.55;4.53;;;;;;;;;;4981702;28;20049;-78
2023/06/01 14:26:48;;;;;;;5.75;4.45;;;;;;;;;;4991649;28;20484;-78
2023/06/01 14:29:13;;;;;;;7.93;5.13;;;;;;;;;;4988189;28;20038;-78
2023/06/01 14:31:38;;;;;;;5.68;4.47;;;;;;;;;;4991027;28;20796;-78
2023/06/01 14:34:04;;;;;;;6.30;4.20;;;;;;;;;;4989981;28;20038;-78
2023/06/01 14:36:30;;;;;;;5.15;4.40;;;;;;;;;;4992853;28;20130;-78